Time;durP1;ratioP1;P1;durP2;ratioP2;P2;SDS_P1;SDS_P2;PMS_P1;PMS_P2;Temp;Humidity;BMP_temperature;BMP_pressure;BME280_temperature;BME280_humidity;BME280_pressure;Samples;Min_cycle;Max_cycle;Signal;HPM_P1;HPM_P2
2023/06/14 00:02:20;;;;;;;7.00;3.90;;;;;;;18.10;100.00;100440.75;105813;1255;72685;-85
2023/06/14 00:04:48;;;;;;;7.10;3.00;;;;;;;18.08;100.00;100439.10;105923;1257;60682;-84
2023/06/14 00:07:16;;;;;;;6.00;3.70;;;;;;;18.07;100.00;100437.69;105888;1254;59692;-84
2023/06/14 00:09:43;;;;;;;4.70;3.10;;;;;;;18.04;100.00;100439.52;105763;1254;72637;-86
2023/06/14 00:12:10;;;;;;;8.20;4.10;;;;;;;18.01;100.00;100437.79;105843;1254;63917;-85
2023/06/14 00:14:37;;;;;;;5.40;3.70;;;;;;;17.99;100.00;100439.78;105691;1256;71583;-88
2023/06/14 00:17:07;;;;;;;5.50;2.90;;;;;;;17.97;100.00;100440.85;105861;1254;61868;-85
2023/06/14 00:19:36;;;;;;;5.00;3.60;;;;;;;17.96;100.00;100441.98;105814;1254;60543;-85
2023/06/14 00:22:03;;;;;;;3.70;2.90;;;;;;;17.96;100.00;100444.15;105644;1253;72510;-88
2023/06/14 00:24:30;;;;;;;3.30;2.90;;;;;;;17.95;100.00;100443.04;105759;1254;63732;-83
2023/06/14 00:26:58;;;;;;;6.50;3.60;;;;;;;17.93;100.00;100446.20;106338;1253;72732;-84
2023/06/14 00:29:25;;;;;;;5.60;3.10;;;;;;;17.91;100.00;100447.28;108115;1253;61159;-85
2023/06/14 00:31:52;;;;;;;4.00;2.90;;;;;;;17.89;100.00;100450.84;106486;1253;60414;-85
2023/06/14 00:34:19;;;;;;;5.40;3.60;;;;;;;17.88;100.00;100449.89;105949;1254;73796;-85
2023/06/14 00:36:46;;;;;;;7.60;3.00;;;;;;;17.87;100.00;100449.02;105758;1254;63054;-89
2023/06/14 00:39:14;;;;;;;6.80;3.30;;;;;;;17.87;100.00;100449.39;105909;1254;72700;-87
2023/06/14 00:41:41;;;;;;;5.40;3.50;;;;;;;17.87;100.00;100447.86;105916;1256;60785;-83
2023/06/14 00:44:08;;;;;;;7.80;4.60;;;;;;;17.86;100.00;100447.24;108136;1253;60347;-82
2023/06/14 00:46:35;;;;;;;7.10;4.80;;;;;;;17.85;100.00;100448.35;107322;1253;73909;-84
2023/06/14 00:49:02;;;;;;;7.30;5.50;;;;;;;17.84;100.00;100451.34;106085;1257;62580;-87
2023/06/14 00:51:29;;;;;;;6.00;4.60;;;;;;;17.82;100.00;100448.98;105601;1261;72591;-84
2023/06/14 00:53:56;;;;;;;7.30;4.60;;;;;;;17.80;100.00;100446.50;105628;1262;62046;-87
2023/06/14 00:56:23;;;;;;;5.50;5.00;;;;;;;17.75;100.00;100445.67;105664;1256;60521;-86
2023/06/14 00:58:51;;;;;;;7.50;5.30;;;;;;;17.71;100.00;100444.17;105592;1260;72867;-84
2023/06/14 01:01:19;;;;;;;7.40;4.90;;;;;;;17.69;100.00;100442.98;106297;1256;63928;-81
2023/06/14 01:03:47;;;;;;;7.70;4.80;;;;;;;17.65;100.00;100444.39;107041;1257;72674;-83
2023/06/14 01:06:26;;;;;;;8.00;5.40;;;;;;;17.64;100.00;100446.08;106341;1257;61774;-86
2023/06/14 01:09:33;;;;;;;13.70;5.40;;;;;;;17.61;100.00;100447.88;105530;1257;60533;-83
2023/06/14 01:12:13;;;;;;;8.90;5.00;;;;;;;17.60;100.00;100450.34;105700;1261;74000;-86
2023/06/14 01:14:40;;;;;;;6.10;4.80;;;;;;;17.59;100.00;100454.67;105630;1260;64001;-84
2023/06/14 01:17:07;;;;;;;8.90;5.20;;;;;;;17.57;100.00;100448.64;105481;1260;71305;-84
2023/06/14 01:19:34;;;;;;;5.20;4.60;;;;;;;17.55;100.00;100447.92;105471;1257;62055;-84
2023/06/14 01:22:01;;;;;;;9.30;5.10;;;;;;;17.55;100.00;100447.21;105700;1258;60422;-86
2023/06/14 01:24:31;;;;;;;6.40;4.90;;;;;;;17.54;100.00;100452.06;105730;1259;73694;-84
2023/06/14 01:26:59;;;;;;;4.40;4.00;;;;;;;17.53;100.00;100457.69;105931;1257;63732;-85
2023/06/14 01:29:32;;;;;;;9.40;5.00;;;;;;;17.51;100.00;100461.96;105774;1256;72766;-87
2023/06/14 01:32:00;;;;;;;10.70;4.80;;;;;;;17.48;100.00;100461.70;105737;1254;60877;-89
2023/06/14 01:34:31;;;;;;;5.50;4.60;;;;;;;17.45;100.00;100463.39;105694;1253;60639;-85
2023/06/14 01:36:58;;;;;;;6.90;4.70;;;;;;;17.41;100.00;100460.55;105719;1254;72747;-83
2023/06/14 01:39:25;;;;;;;7.70;4.60;;;;;;;17.37;100.00;100461.04;105704;1259;63960;-83
2023/06/14 01:41:52;;;;;;;8.10;4.60;;;;;;;17.33;100.00;100461.09;107381;1256;73483;-81
2023/06/14 01:44:19;;;;;;;6.40;4.50;;;;;;;17.30;100.00;100457.98;106029;1258;61965;-84
2023/06/14 01:46:46;;;;;;;7.20;3.80;;;;;;;17.27;100.00;100458.09;105729;1253;60362;-85
2023/06/14 01:49:13;;;;;;;5.10;4.30;;;;;;;17.24;100.00;100454.98;105675;1254;73904;-86
2023/06/14 01:51:41;;;;;;;4.80;3.50;;;;;;;17.22;100.00;100458.23;105799;1257;62815;-84
2023/06/14 01:54:08;;;;;;;6.20;3.60;;;;;;;17.19;100.00;100456.16;105875;1252;72745;-83
2023/06/14 01:56:35;;;;;;;4.40;3.10;;;;;;;17.16;100.00;100458.40;105731;1254;63307;-87
2023/06/14 01:59:02;;;;;;;5.20;3.20;;;;;;;17.12;100.00;100457.29;107665;1253;60425;-85
2023/06/14 02:01:29;;;;;;;6.20;3.40;;;;;;;17.07;100.00;100458.16;108522;1259;72647;-84
2023/06/14 02:03:56;;;;;;;10.00;3.70;;;;;;;17.02;100.00;100458.40;106649;1257;63640;-86
2023/06/14 02:06:23;;;;;;;5.00;3.60;;;;;;;17.01;100.00;100456.94;105868;1254;72617;-85
2023/06/14 02:08:49;;;;;;;8.50;3.80;;;;;;;16.97;100.00;100454.05;105886;1256;62018;-83
2023/06/14 02:11:16;;;;;;;9.50;3.70;;;;;;;16.94;100.00;100454.30;105843;1253;60546;-85
2023/06/14 02:13:44;;;;;;;7.70;3.50;;;;;;;16.91;100.00;100455.83;106026;1253;73517;-84
2023/06/14 02:16:11;;;;;;;14.70;3.50;;;;;;;16.89;100.00;100458.99;105899;1254;61545;-87
2023/06/14 02:18:39;;;;;;;4.00;3.10;;;;;;;16.90;100.00;100462.26;105635;1254;72756;-87
2023/06/14 02:21:06;;;;;;;7.60;3.50;;;;;;;16.89;100.00;100459.39;105723;1256;61993;-85
2023/06/14 02:23:33;;;;;;;6.70;2.90;;;;;;;16.88;100.00;100462.48;105825;1254;60540;-85
2023/06/14 02:26:02;;;;;;;4.20;3.00;;;;;;;16.88;100.00;100463.19;105883;1253;73636;-89
2023/06/14 02:28:30;;;;;;;5.50;3.90;;;;;;;16.89;100.00;100462.90;105908;1254;63677;-86
2023/06/14 02:30:57;;;;;;;5.60;3.20;;;;;;;16.90;100.00;100458.73;105877;1253;71372;-86
2023/06/14 02:33:25;;;;;;;5.30;3.30;;;;;;;16.92;100.00;100457.14;105768;1254;61819;-85
2023/06/14 02:35:52;;;;;;;7.30;3.70;;;;;;;16.92;100.00;100458.79;105863;1256;60367;-89
2023/06/14 02:38:20;;;;;;;9.20;4.00;;;;;;;16.90;100.00;100460.20;106505;1254;72866;-84
2023/06/14 02:40:48;;;;;;;5.70;3.10;;;;;;;16.87;100.00;100463.59;107531;1253;62559;-85
2023/06/14 02:43:17;;;;;;;7.60;3.50;;;;;;;16.85;100.00;100463.48;107671;1253;72507;-85
2023/06/14 02:45:44;;;;;;;5.10;3.50;;;;;;;16.83;100.00;100467.57;105814;1257;62022;-82
2023/06/14 02:48:14;;;;;;;7.70;3.60;;;;;;;16.83;100.00;100477.05;105754;1254;60553;-87
2023/06/14 02:50:41;;;;;;;6.40;3.80;;;;;;;16.87;100.00;100473.35;106039;1254;73830;-86
2023/06/14 02:53:08;;;;;;;8.20;3.50;;;;;;;16.89;100.00;100474.54;106019;1254;62286;-87
2023/06/14 02:55:39;;;;;;;8.10;4.00;;;;;;;16.89;100.00;100475.60;105839;1254;72754;-84
2023/06/14 02:58:06;;;;;;;7.20;3.70;;;;;;;16.89;100.00;100478.13;105731;1253;60714;-85
2023/06/14 03:00:36;;;;;;;9.80;4.60;;;;;;;16.89;100.00;100475.45;105861;1253;60376;-84
2023/06/14 03:03:04;;;;;;;6.60;4.10;;;;;;;16.91;100.00;100478.46;105798;1257;73828;-86
2023/06/14 03:05:32;;;;;;;5.90;3.90;;;;;;;16.95;100.00;100483.92;105829;1257;63872;-85
2023/06/14 03:08:00;;;;;;;7.20;4.70;;;;;;;16.97;100.00;100488.15;105828;1257;71484;-87
2023/06/14 03:10:28;;;;;;;6.30;3.70;;;;;;;16.98;100.00;100486.43;105907;1254;61048;-86
2023/06/14 03:12:56;;;;;;;7.90;6.50;;;;;;;17.00;100.00;100484.86;105780;1257;60380;-86
2023/06/14 03:15:23;;;;;;;7.70;3.90;;;;;;;17.01;100.00;100487.30;105774;1257;73897;-86
2023/06/14 03:17:50;;;;;;;6.40;3.70;;;;;;;17.03;100.00;100486.96;106055;1254;62781;-86
2023/06/14 03:20:18;;;;;;;6.60;3.70;;;;;;;17.03;100.00;100481.80;105808;1255;72715;-87
2023/06/14 03:22:47;;;;;;;5.10;3.50;;;;;;;17.05;100.00;100484.52;105719;1259;62082;-84
2023/06/14 03:25:15;;;;;;;7.10;4.50;;;;;;;17.08;100.00;100488.60;105810;1253;60809;-86
2023/06/14 03:27:42;;;;;;;7.00;3.70;;;;;;;17.11;100.00;100486.70;105714;1254;72523;-86
2023/06/14 03:30:09;;;;;;;7.60;4.20;;;;;;;17.14;100.00;100488.20;105927;1256;63641;-86
2023/06/14 03:32:37;;;;;;;8.60;3.60;;;;;;;17.17;100.00;100492.16;105988;1253;72615;-85
2023/06/14 03:35:05;;;;;;;4.90;3.60;;;;;;;17.20;100.00;100490.14;105746;1254;61873;-86
2023/06/14 03:37:32;;;;;;;10.10;4.40;;;;;;;17.24;100.00;100491.45;105713;1254;60626;-85
2023/06/14 03:39:58;;;;;;;9.10;4.70;;;;;;;17.25;100.00;100492.20;105804;1257;73719;-85
2023/06/14 03:42:26;;;;;;;11.90;6.10;;;;;;;17.26;100.00;100485.95;105953;1254;62486;-86
2023/06/14 03:44:53;;;;;;;5.90;3.80;;;;;;;17.27;100.00;100484.24;105770;1256;72642;-86
2023/06/14 03:47:21;;;;;;;7.70;4.00;;;;;;;17.28;100.00;100483.42;105903;1253;63143;-84
2023/06/14 03:49:48;;;;;;;8.20;3.90;;;;;;;17.28;100.00;100482.23;106197;1252;60491;-87
2023/06/14 03:52:16;;;;;;;6.70;3.70;;;;;;;17.28;100.00;100487.55;106841;1252;73722;-83
2023/06/14 03:54:46;;;;;;;12.20;3.60;;;;;;;17.28;100.00;100484.84;106237;1254;64077;-83
2023/06/14 03:57:18;;;;;;;6.70;3.90;;;;;;;17.28;100.00;100481.71;105978;1254;71371;-83
2023/06/14 03:59:47;;;;;;;6.70;4.10;;;;;;;17.30;100.00;100483.64;105733;1253;62084;-86
2023/06/14 04:02:15;;;;;;;5.50;4.30;;;;;;;17.32;100.00;100482.89;106212;1251;60456;-86
2023/06/14 04:04:45;;;;;;;5.20;3.70;;;;;;;17.35;100.00;100480.19;108531;1252;72500;-83
2023/06/14 04:07:12;;;;;;;4.30;3.60;;;;;;;17.37;100.00;100480.13;106768;1254;64003;-83
2023/06/14 04:09:39;;;;;;;7.90;4.60;;;;;;;17.40;100.00;100480.41;105876;1258;72514;-85
2023/06/14 04:12:11;;;;;;;6.70;3.70;;;;;;;17.43;100.00;100483.65;105987;1256;61878;-85
2023/06/14 04:14:39;;;;;;;6.70;4.20;;;;;;;17.48;100.00;100481.86;105815;1254;60460;-85
2023/06/14 04:17:08;;;;;;;8.30;3.80;;;;;;;17.51;100.00;100482.55;105923;1255;73795;-87
2023/06/14 04:19:36;;;;;;;10.80;4.90;;;;;;;17.56;100.00;100480.31;106107;1253;62929;-89
2023/06/14 04:22:03;;;;;;;11.00;5.20;;;;;;;17.60;100.00;100480.81;105959;1254;72501;-86
2023/06/14 04:24:34;;;;;;;8.00;4.70;;;;;;;17.62;100.00;100482.27;105814;1253;61910;-85
2023/06/14 04:27:02;;;;;;;4.80;4.30;;;;;;;17.65;100.00;100482.58;105772;1254;60798;-85
2023/06/14 04:29:31;;;;;;;5.30;4.10;;;;;;;17.70;100.00;100480.67;105983;1254;72586;-83
2023/06/14 04:32:01;;;;;;;5.70;4.10;;;;;;;17.76;100.00;100484.20;105794;1254;62534;-84
2023/06/14 04:34:33;;;;;;;8.30;4.60;;;;;;;17.80;100.00;100485.94;105878;1254;72478;-83
2023/06/14 04:37:01;;;;;;;9.20;5.10;;;;;;;17.85;100.00;100487.30;105829;1256;62034;-84
2023/06/14 04:39:34;;;;;;;6.60;4.10;;;;;;;17.91;100.00;100485.34;106647;1257;60441;-82
2023/06/14 04:42:03;;;;;;;6.40;4.50;;;;;;;17.97;100.00;100489.38;106330;1256;73711;-83
2023/06/14 04:44:31;;;;;;;8.90;4.60;;;;;;;18.05;100.00;100486.13;107601;1252;63897;-83
2023/06/14 04:47:06;;;;;;;11.30;5.00;;;;;;;18.13;100.00;100487.98;106456;1254;71244;-85
2023/06/14 04:49:34;;;;;;;7.80;4.90;;;;;;;18.21;100.00;100488.17;106050;1253;62022;-86
2023/06/14 04:52:05;;;;;;;5.10;4.50;;;;;;;18.28;100.00;100486.29;105856;1256;61761;-86
2023/06/14 04:54:41;;;;;;;9.10;6.20;;;;;;;18.39;100.00;100481.86;105885;1254;73717;-86
2023/06/14 04:57:14;;;;;;;7.20;4.80;;;;;;;18.49;100.00;100478.79;105896;1256;63735;-84
2023/06/14 04:59:44;;;;;;;9.20;5.40;;;;;;;18.59;100.00;100479.98;105949;1254;72687;-86
2023/06/14 05:02:11;;;;;;;10.20;4.90;;;;;;;18.65;100.00;100479.90;106038;1256;61736;-85
2023/06/14 05:04:39;;;;;;;14.70;6.50;;;;;;;18.64;100.00;100483.86;105825;1257;60492;-85
2023/06/14 05:07:09;;;;;;;8.80;4.90;;;;;;;18.70;100.00;100483.39;105930;1256;73581;-85
2023/06/14 05:09:36;;;;;;;9.00;4.80;;;;;;;18.80;100.00;100486.29;105777;1257;64920;-89
2023/06/14 05:12:04;;;;;;;6.90;4.00;;;;;;;18.87;100.00;100484.75;105807;1253;72746;-85
2023/06/14 05:14:31;;;;;;;8.70;4.50;;;;;;;18.97;100.00;100489.19;105884;1253;61715;-84
2023/06/14 05:16:59;;;;;;;11.50;4.50;;;;;;;19.13;100.00;100489.45;106174;1258;61447;-85
2023/06/14 05:19:27;;;;;;;8.00;4.60;;;;;;;19.28;100.00;100490.09;105913;1254;73849;-87
2023/06/14 05:21:54;;;;;;;8.10;4.40;;;;;;;19.43;100.00;100491.29;105844;1254;63959;-88
2023/06/14 05:24:21;;;;;;;9.10;4.70;;;;;;;19.52;100.00;100490.95;105832;1254;72534;-85
2023/06/14 05:26:49;;;;;;;7.60;5.00;;;;;;;19.62;100.00;100485.05;105960;1256;62090;-87
2023/06/14 05:29:18;;;;;;;9.10;4.60;;;;;;;19.75;100.00;100486.69;106107;1253;60347;-87
2023/06/14 05:31:45;;;;;;;9.10;5.10;;;;;;;19.87;100.00;100484.21;106310;1253;73754;-83
2023/06/14 05:34:12;;;;;;;13.20;4.50;;;;;;;19.98;100.00;100483.46;105777;1254;63967;-85
2023/06/14 05:36:40;;;;;;;7.50;5.00;;;;;;;20.09;100.00;100480.77;106307;1254;71588;-84
2023/06/14 05:39:08;;;;;;;7.30;4.40;;;;;;;20.20;100.00;100480.98;107637;1252;62014;-85
2023/06/14 05:41:35;;;;;;;9.30;4.70;;;;;;;20.33;100.00;100483.09;109352;1252;60518;-85
2023/06/14 05:44:02;;;;;;;8.30;5.20;;;;;;;20.49;100.00;100482.89;107497;1257;73970;-82
2023/06/14 05:46:29;;;;;;;13.00;5.90;;;;;;;20.66;100.00;100482.70;106208;1256;63701;-84
2023/06/14 05:48:57;;;;;;;8.20;4.00;;;;;;;20.89;100.00;100479.52;105847;1256;71204;-86
2023/06/14 05:51:27;;;;;;;8.60;4.60;;;;;;;21.16;100.00;100480.02;105870;1254;62087;-85
2023/06/14 05:53:54;;;;;;;8.50;4.20;;;;;;;21.47;100.00;100476.54;106031;1254;60460;-87
2023/06/14 05:56:21;;;;;;;9.50;4.50;;;;;;;21.77;100.00;100474.39;105881;1256;73821;-85
2023/06/14 05:58:49;;;;;;;9.10;4.20;;;;;;;22.05;100.00;100478.03;105954;1257;64235;-85
2023/06/14 06:01:19;;;;;;;7.50;3.80;;;;;;;22.26;100.00;100479.69;106251;1256;72698;-84
2023/06/14 06:03:47;;;;;;;6.60;4.90;;;;;;;22.44;99.61;100483.55;106312;1254;60471;-85
2023/06/14 06:06:14;;;;;;;9.40;4.00;;;;;;;22.57;99.02;100487.20;106528;1256;60441;-86
2023/06/14 06:08:42;;;;;;;6.00;4.80;;;;;;;22.73;98.39;100489.17;106096;1255;74497;-84
2023/06/14 06:11:09;;;;;;;4.90;3.80;;;;;;;22.88;97.48;100487.58;106141;1254;63888;-84
2023/06/14 06:13:38;;;;;;;6.30;3.90;;;;;;;23.04;97.03;100488.86;106712;1252;72722;-86
2023/06/14 06:16:06;;;;;;;6.40;4.10;;;;;;;23.06;95.48;100486.92;105881;1258;60441;-87
2023/06/14 06:18:34;;;;;;;6.40;4.50;;;;;;;22.99;95.47;100484.46;106109;1254;60507;-86
2023/06/14 06:23:08;;;;;;;5.70;3.80;;;;;;;22.95;95.35;100486.52;102567;1291;601033;-87
2023/06/14 06:25:36;;;;;;;8.00;4.20;;;;;;;22.98;95.08;100487.77;104748;1267;60312;-88
2023/06/14 06:28:04;;;;;;;5.50;4.10;;;;;;;23.07;94.65;100493.70;105149;1260;59671;-85
2023/06/14 06:30:32;;;;;;;4.80;3.50;;;;;;;23.14;94.37;100489.63;105377;1262;71033;-84
2023/06/14 06:32:59;;;;;;;6.70;4.20;;;;;;;23.33;94.48;100493.02;105359;1259;63365;-87
2023/06/14 06:35:28;;;;;;;5.50;4.50;;;;;;;23.66;93.49;100490.55;105451;1259;73628;-87
2023/06/14 06:37:56;;;;;;;7.20;4.80;;;;;;;24.09;92.49;100492.13;105016;1257;725008;-85
2023/06/14 06:40:24;;;;;;;4.80;3.60;;;;;;;24.44;90.64;100494.17;105611;1261;59308;-90
2023/06/14 06:42:53;;;;;;;5.40;4.00;;;;;;;24.76;89.31;100491.40;105573;1258;72269;-87
2023/06/14 06:45:21;;;;;;;6.90;4.20;;;;;;;25.01;87.34;100488.50;105446;1263;63842;-87
2023/06/14 06:47:51;;;;;;;6.60;4.20;;;;;;;25.12;86.30;100486.80;105517;1258;71434;-87
2023/06/14 06:50:19;;;;;;;6.20;3.40;;;;;;;24.97;84.76;100491.61;105618;1256;60529;-85
2023/06/14 06:52:47;;;;;;;9.10;3.80;;;;;;;24.75;86.18;100489.38;106066;1253;59496;-87
2023/06/14 06:55:15;;;;;;;7.70;4.00;;;;;;;24.55;86.93;100492.59;105871;1256;73036;-85
2023/06/14 06:57:43;;;;;;;6.60;4.20;;;;;;;24.38;87.73;100495.14;105999;1253;62967;-85
2023/06/14 07:00:12;;;;;;;9.30;4.50;;;;;;;24.12;87.62;100495.39;105880;1253;71956;-86
2023/06/14 07:02:41;;;;;;;6.20;3.60;;;;;;;23.78;88.62;100494.86;105967;1253;60063;-84
2023/06/14 07:05:08;;;;;;;7.20;4.70;;;;;;;23.58;90.28;100490.93;105952;1257;59548;-88
2023/06/14 07:07:36;;;;;;;7.40;3.50;;;;;;;23.44;91.18;100486.17;109168;1256;71799;-82
2023/06/14 07:10:04;;;;;;;16.50;5.10;;;;;;;23.34;90.60;100485.23;106870;1255;63039;-86
2023/06/14 07:12:33;;;;;;;9.50;4.10;;;;;;;23.36;90.47;100484.80;106562;1256;72766;-85
2023/06/14 07:15:01;;;;;;;6.80;4.30;;;;;;;23.39;90.43;100492.52;106285;1253;61194;-85
2023/06/14 07:17:29;;;;;;;6.00;3.70;;;;;;;23.42;90.36;100488.44;106318;1253;60130;-85
2023/06/14 07:19:58;;;;;;;7.80;4.60;;;;;;;23.39;90.87;100485.74;106150;1258;73053;-86
2023/06/14 07:22:25;;;;;;;6.50;4.80;;;;;;;23.26;90.23;100485.58;107181;1253;62906;-83
2023/06/14 07:24:53;;;;;;;8.20;4.20;;;;;;;23.11;90.45;100492.86;107673;1253;71898;-82
2023/06/14 07:27:20;;;;;;;10.10;4.50;;;;;;;22.95;90.95;100495.34;106847;1255;59718;-85
2023/06/14 07:29:48;;;;;;;6.80;4.40;;;;;;;22.83;91.22;100497.47;106203;1253;61888;-84
2023/06/14 07:32:16;;;;;;;5.60;4.00;;;;;;;22.79;91.59;100496.86;106536;1253;74077;-87
2023/06/14 07:34:44;;;;;;;8.80;4.80;;;;;;;22.79;91.82;100491.88;106474;1253;64744;-88
2023/06/14 07:37:12;;;;;;;5.10;4.00;;;;;;;22.80;91.75;100493.39;106567;1256;71615;-84
2023/06/14 07:39:40;;;;;;;10.70;4.50;;;;;;;22.80;91.07;100490.41;106803;1253;59620;-86
2023/06/14 07:42:13;;;;;;;7.60;4.40;;;;;;;22.84;91.32;100489.59;106238;1255;61417;-87
2023/06/14 07:44:41;;;;;;;8.40;4.30;;;;;;;22.91;91.55;100486.86;106262;1253;72100;-85
2023/06/14 07:47:10;;;;;;;8.90;4.90;;;;;;;22.97;91.53;100488.33;106505;1255;63803;-83
2023/06/14 07:49:37;;;;;;;10.80;5.50;;;;;;;22.95;91.86;100490.92;106354;1254;72672;-87
2023/06/14 07:52:06;;;;;;;7.90;4.20;;;;;;;22.89;91.19;100488.08;106113;1254;59756;-84
2023/06/14 07:54:33;;;;;;;8.20;4.30;;;;;;;22.81;91.61;100487.96;105619;1260;59583;-89
2023/06/14 07:57:01;;;;;;;7.10;4.00;;;;;;;22.81;92.64;100485.75;105891;1252;73316;-88
2023/06/14 08:11:35;;;;;;;7.60;4.00;;;;;;;24.84;88.35;100478.09;103297;1291;614791;-87
2023/06/14 08:14:04;;;;;;;9.20;4.70;;;;;;;25.04;84.42;100477.56;107047;1263;59133;-84
2023/06/14 08:16:31;;;;;;;7.20;4.20;;;;;;;25.02;82.91;100475.52;108040;1264;59139;-81
2023/06/14 08:18:58;;;;;;;13.00;5.50;;;;;;;25.13;83.22;100474.27;106715;1266;71048;-84
2023/06/14 08:21:28;;;;;;;5.90;4.20;;;;;;;25.19;82.36;100470.38;105036;1270;63871;-85
2023/06/14 08:23:57;;;;;;;7.90;4.60;;;;;;;25.23;83.25;100475.23;104668;1266;626879;-85
2023/06/14 08:26:28;;;;;;;5.80;3.70;;;;;;;25.21;80.16;100480.54;105119;1265;59251;-88
2023/06/14 08:28:57;;;;;;;8.60;4.30;;;;;;;25.14;79.86;100479.00;105177;1263;60410;-85
2023/06/14 08:31:25;;;;;;;10.80;4.20;;;;;;;25.06;80.16;100483.41;105168;1263;72249;-86
2023/06/14 08:33:53;;;;;;;8.00;4.00;;;;;;;24.94;80.84;100487.78;105907;1253;63782;-87
2023/06/14 08:36:22;;;;;;;9.90;4.60;;;;;;;24.88;81.22;100490.64;106025;1259;72716;-87
2023/06/14 08:38:49;;;;;;;7.30;4.00;;;;;;;24.84;81.98;100489.92;108782;1252;59512;-85
2023/06/14 08:41:26;;;;;;;6.20;4.10;;;;;;;24.77;81.18;100490.71;108894;1253;59162;-86
2023/06/14 08:43:53;;;;;;;9.50;4.90;;;;;;;24.80;83.26;100490.34;107701;1254;71836;-86
2023/06/14 08:46:20;;;;;;;9.80;3.90;;;;;;;24.75;82.44;100494.69;105904;1259;63875;-88
2023/06/14 08:48:52;;;;;;;7.30;3.90;;;;;;;24.62;81.56;100495.61;106019;1253;71482;-84
2023/06/14 08:51:19;;;;;;;6.80;4.70;;;;;;;24.53;82.16;100492.45;105956;1253;60253;-86
2023/06/14 08:53:46;;;;;;;7.40;4.50;;;;;;;24.49;83.16;100491.47;105843;1257;60007;-85
2023/06/14 08:56:13;;;;;;;7.70;4.20;;;;;;;24.45;83.79;100490.83;105787;1254;74938;-86
2023/06/14 08:58:44;;;;;;;8.30;4.80;;;;;;;24.43;84.67;100493.10;105820;1258;64010;-85
2023/06/14 09:01:16;;;;;;;13.10;5.80;;;;;;;24.35;84.27;100493.95;106118;1253;71413;-86
2023/06/14 09:03:44;;;;;;;10.30;5.70;;;;;;;24.30;86.72;100494.45;106099;1254;59999;-86
2023/06/14 09:06:13;;;;;;;9.60;4.80;;;;;;;24.28;86.53;100494.68;105765;1260;59831;-88
2023/06/14 09:08:43;;;;;;;7.60;4.00;;;;;;;24.21;85.98;100495.12;105896;1254;72090;-86
2023/06/14 09:11:15;;;;;;;7.10;4.40;;;;;;;24.14;87.19;100493.08;106195;1253;64034;-84
2023/06/14 09:13:43;;;;;;;11.80;4.40;;;;;;;24.06;85.91;100492.30;106760;1253;71403;-85
2023/06/14 09:16:10;;;;;;;8.40;4.60;;;;;;;23.85;85.60;100491.52;106542;1253;59830;-85
2023/06/14 09:18:38;;;;;;;10.90;4.90;;;;;;;23.64;86.61;100495.27;106602;1254;60386;-85
2023/06/14 09:21:07;;;;;;;7.30;4.50;;;;;;;23.45;87.66;100496.84;106056;1253;73524;-88
2023/06/14 09:23:38;;;;;;;16.10;5.40;;;;;;;23.33;88.97;100493.74;106029;1253;63431;-86
2023/06/14 09:26:13;;;;;;;9.00;4.40;;;;;;;23.25;89.56;100494.73;106046;1256;72626;-87
2023/06/14 09:28:46;;;;;;;7.60;4.60;;;;;;;23.14;90.06;100500.30;106708;1257;60209;-85
2023/06/14 09:31:20;;;;;;;8.20;4.80;;;;;;;23.02;90.37;100506.39;106568;1253;59656;-86
2023/06/14 09:33:49;;;;;;;9.70;5.60;;;;;;;22.95;90.57;100508.38;107428;1253;71826;-85
2023/06/14 09:36:17;;;;;;;8.20;5.20;;;;;;;22.88;90.68;100507.61;106358;1253;62348;-85
2023/06/14 09:38:56;;;;;;;9.20;5.40;;;;;;;22.86;92.12;100506.75;106106;1257;71414;-89
2023/06/14 09:41:38;;;;;;;7.40;5.20;;;;;;;22.84;92.63;100510.61;105985;1258;60063;-86
2023/06/14 09:44:06;;;;;;;10.00;5.70;;;;;;;22.76;92.43;100507.16;106030;1257;59674;-86
2023/06/14 09:46:38;;;;;;;8.80;5.90;;;;;;;22.69;92.64;100510.98;106580;1257;72110;-87
2023/06/14 09:49:06;;;;;;;13.70;6.80;;;;;;;22.67;92.80;100503.20;106186;1256;62399;-86
2023/06/14 09:51:34;;;;;;;10.80;5.70;;;;;;;22.69;93.22;100502.99;105973;1256;72689;-85
2023/06/14 09:54:04;;;;;;;10.40;5.50;;;;;;;22.71;92.82;100500.11;106237;1253;60437;-87
2023/06/14 09:56:33;;;;;;;9.60;5.70;;;;;;;22.76;93.29;100496.48;106291;1253;60364;-87
2023/06/14 09:59:00;;;;;;;10.50;5.20;;;;;;;22.84;93.59;100496.73;106145;1254;72754;-85
2023/06/14 10:01:43;;;;;;;7.70;5.40;;;;;;;22.89;92.55;100498.08;106041;1255;63422;-86
2023/06/14 10:04:12;;;;;;;9.80;5.90;;;;;;;22.93;93.14;100500.60;106058;1257;72656;-84
2023/06/14 10:06:41;;;;;;;9.00;5.20;;;;;;;23.03;92.65;100502.33;106173;1257;60414;-85
2023/06/14 10:09:12;;;;;;;12.10;5.80;;;;;;;23.10;92.13;100507.58;107449;1253;62506;-88
2023/06/14 10:11:43;;;;;;;8.20;6.20;;;;;;;23.15;91.89;100507.31;106414;1253;71666;-84
2023/06/14 10:14:16;;;;;;;7.30;5.50;;;;;;;23.25;92.08;100504.85;106508;1257;63798;-85
2023/06/14 10:16:52;;;;;;;11.30;6.00;;;;;;;23.46;92.42;100504.19;106879;1253;71471;-86
2023/06/14 10:19:35;;;;;;;11.70;6.00;;;;;;;23.74;91.40;100498.88;106079;1257;60241;-86
2023/06/14 10:22:10;;;;;;;8.30;5.40;;;;;;;23.98;90.09;100496.42;106019;1257;60237;-84
2023/06/14 10:24:44;;;;;;;11.40;5.60;;;;;;;24.18;89.12;100492.11;106546;1254;72908;-84
2023/06/14 10:27:14;;;;;;;;;;;;;;;24.33;88.23;100487.15;107487;1253;62677;-86
2023/06/14 10:29:57;;;;;;;9.00;5.30;;;;;;;24.39;87.72;100483.90;106421;1253;71313;-86
2023/06/14 10:32:25;;;;;;;9.90;5.00;;;;;;;24.49;86.01;100483.40;105995;1253;61222;-87
2023/06/14 10:35:05;;;;;;;8.20;5.40;;;;;;;24.53;85.52;100485.02;105825;1253;60222;-90
2023/06/14 10:37:33;;;;;;;11.90;5.20;;;;;;;24.53;84.00;100488.25;105835;1257;73214;-87
2023/06/14 10:40:00;;;;;;;10.70;5.30;;;;;;;24.55;84.12;100486.58;105701;1253;65625;-88
2023/06/14 10:42:28;;;;;;;14.10;5.30;;;;;;;24.67;84.19;100486.27;108059;1250;71379;-87
2023/06/14 10:44:55;;;;;;;10.60;5.00;;;;;;;24.89;85.11;100481.94;106878;1250;60527;-84
2023/06/14 10:47:34;;;;;;;9.60;4.90;;;;;;;25.14;83.81;100480.73;106163;1255;59611;-87
2023/06/14 10:50:01;;;;;;;7.80;4.90;;;;;;;25.41;80.14;100474.03;106144;1256;73432;-86
2023/06/14 10:52:31;;;;;;;9.40;4.80;;;;;;;25.68;81.94;100475.09;106099;1254;63671;-87
2023/06/14 10:55:14;;;;;;;10.90;4.80;;;;;;;25.99;82.27;100474.29;107077;1250;72550;-83
2023/06/14 10:57:58;;;;;;;9.10;4.50;;;;;;;26.40;78.89;100469.89;107326;1250;60501;-86
2023/06/14 11:00:28;;;;;;;7.20;4.70;;;;;;;26.56;70.76;100469.71;107336;1250;59564;-86
2023/06/14 11:03:20;;;;;;;8.50;4.80;;;;;;;26.52;68.46;100465.41;107028;1250;73053;-85
2023/06/14 11:05:53;;;;;;;7.70;4.80;;;;;;;26.35;68.21;100462.06;106702;1250;62496;-84
2023/06/14 11:08:33;;;;;;;7.90;5.00;;;;;;;26.30;70.24;100460.63;106257;1250;71523;-86
2023/06/14 11:11:01;;;;;;;8.00;4.70;;;;;;;26.29;73.96;100455.48;106032;1250;60461;-86
2023/06/14 11:13:28;;;;;;;7.90;4.90;;;;;;;26.41;74.10;100454.67;106083;1250;60375;-84
2023/06/14 11:15:58;;;;;;;102.90;92.20;;;;;;;26.52;74.62;100456.15;105940;1251;73115;-86
2023/06/14 11:18:29;;;;;;;14.10;7.90;;;;;;;26.68;73.50;100456.39;105993;1250;63870;-86
2023/06/14 11:20:56;;;;;;;13.30;5.80;;;;;;;26.81;71.25;100452.30;105838;1250;73142;-89
2023/06/14 11:23:23;;;;;;;10.10;5.20;;;;;;;26.91;68.14;100454.30;105862;1250;60166;-84
2023/06/14 11:25:51;;;;;;;7.60;4.70;;;;;;;26.98;67.66;100456.08;105947;1254;59670;-87
2023/06/14 11:28:21;;;;;;;8.00;4.70;;;;;;;27.02;67.26;100451.17;105966;1250;72977;-83
2023/06/14 11:30:48;;;;;;;8.90;4.40;;;;;;;27.05;67.72;100454.30;106085;1254;62517;-86
2023/06/14 11:33:19;;;;;;;8.80;5.40;;;;;;;27.03;66.98;100451.77;106027;1250;71698;-85
2023/06/14 11:35:46;;;;;;;8.60;4.30;;;;;;;26.87;66.97;100454.38;107042;1250;60316;-87